createdAt,value
2022-10-18T00:00:36.185Z,19.50
2022-10-18T00:01:36.164Z,19.70
2022-10-18T00:02:36.217Z,19.60
2022-10-18T00:03:36.191Z,20.80
2022-10-18T00:04:36.105Z,21.30
2022-10-18T00:05:36.087Z,21.10
2022-10-18T00:06:38.637Z,19.60
2022-10-18T00:07:36.047Z,20.60
2022-10-18T00:08:36.027Z,19.90
2022-10-18T00:09:36.006Z,20.10
2022-10-18T00:10:35.986Z,20.20
2022-10-18T00:11:35.968Z,20.70
2022-10-18T00:12:36.013Z,19.60
2022-10-18T00:13:35.946Z,19.80
2022-10-18T00:14:35.908Z,19.70
2022-10-18T00:15:35.888Z,19.20
2022-10-18T00:16:35.868Z,19.80
2022-10-18T00:17:35.849Z,19.70
2022-10-18T00:18:35.828Z,19.90
2022-10-18T00:19:35.810Z,20.20
2022-10-18T00:20:35.790Z,19.40
2022-10-18T00:21:35.806Z,19.70
2022-10-18T00:22:35.749Z,20.00
2022-10-18T00:23:35.732Z,20.10
2022-10-18T00:24:35.712Z,19.70
2022-10-18T00:25:35.691Z,19.50
2022-10-18T00:26:35.669Z,19.80
2022-10-18T00:27:35.649Z,19.40
2022-10-18T00:28:35.678Z,19.30
2022-10-18T00:29:35.629Z,19.30
2022-10-18T00:30:35.590Z,18.70
2022-10-18T00:31:35.572Z,19.00
2022-10-18T00:32:35.551Z,18.50
2022-10-18T00:33:35.533Z,19.20
2022-10-18T00:34:35.512Z,19.60
2022-10-18T00:35:35.492Z,19.10
2022-10-18T00:36:35.472Z,18.40
2022-10-18T00:37:35.451Z,19.50
2022-10-18T00:38:35.431Z,19.80
2022-10-18T00:39:35.414Z,18.20
2022-10-18T00:40:35.392Z,18.90
2022-10-18T00:41:35.372Z,19.70
2022-10-18T00:42:35.351Z,18.20
2022-10-18T00:43:35.336Z,19.40
2022-10-18T00:44:35.313Z,17.40
2022-10-18T00:45:35.310Z,18.20
2022-10-18T00:46:35.273Z,19.00
2022-10-18T00:47:35.258Z,19.20
2022-10-18T00:48:35.234Z,20.00
2022-10-18T00:49:35.213Z,18.60
2022-10-18T00:50:35.193Z,18.50
2022-10-18T00:51:35.177Z,18.20
2022-10-18T00:52:35.963Z,17.60
2022-10-18T00:53:35.143Z,17.70
2022-10-18T00:54:35.116Z,18.30
2022-10-18T00:55:35.097Z,18.00
2022-10-18T00:56:35.076Z,18.10
2022-10-18T00:57:35.057Z,18.00
2022-10-18T00:58:35.034Z,18.90
2022-10-18T00:59:35.019Z,17.40
2022-10-18T01:00:34.996Z,18.00
2022-10-18T01:01:35.070Z,17.30
2022-10-18T01:02:34.955Z,18.20
2022-10-18T01:03:34.938Z,18.30
2022-10-18T01:04:34.920Z,18.80
2022-10-18T01:05:34.897Z,17.60
2022-10-18T01:06:34.876Z,17.00
2022-10-18T01:07:34.863Z,17.90
2022-10-18T01:08:34.840Z,16.90
2022-10-18T01:09:34.823Z,17.90
2022-10-18T01:10:34.800Z,17.00
2022-10-18T01:11:34.781Z,18.50
2022-10-18T01:12:34.757Z,17.20
2022-10-18T01:13:34.743Z,18.90
2022-10-18T01:14:34.718Z,18.00
2022-10-18T01:15:34.700Z,18.90
2022-10-18T01:16:34.678Z,18.10
2022-10-18T01:17:34.790Z,18.20
2022-10-18T01:18:34.640Z,18.20
2022-10-18T01:19:34.624Z,17.90
2022-10-18T01:20:34.601Z,18.10
2022-10-18T01:21:34.584Z,18.40
2022-10-18T01:22:34.562Z,17.40
2022-10-18T01:23:34.546Z,18.00
2022-10-18T01:24:34.521Z,17.10
2022-10-18T01:25:34.505Z,17.40
2022-10-18T01:26:34.482Z,17.70
2022-10-18T01:27:34.467Z,18.00
2022-10-18T01:28:34.521Z,17.60
2022-10-18T01:29:34.427Z,17.20
2022-10-18T01:30:34.405Z,18.60
2022-10-18T01:31:34.385Z,17.40
2022-10-18T01:32:34.364Z,17.10
2022-10-18T01:33:34.371Z,16.80
2022-10-18T01:34:34.330Z,16.70
2022-10-18T01:35:34.306Z,17.80
2022-10-18T01:36:34.285Z,17.90
2022-10-18T01:37:34.521Z,17.10
2022-10-18T01:38:34.245Z,16.30
2022-10-18T01:39:34.229Z,17.30
2022-10-18T01:40:34.206Z,16.70
2022-10-18T01:41:34.186Z,17.50
2022-10-18T01:42:34.165Z,16.70
2022-10-18T01:43:34.152Z,17.70
2022-10-18T01:44:34.128Z,17.70
2022-10-18T01:45:34.110Z,17.10
2022-10-18T01:46:34.089Z,17.30
2022-10-18T01:47:34.322Z,17.00
2022-10-18T01:48:34.049Z,17.10
2022-10-18T01:49:34.049Z,17.50
2022-10-18T01:50:34.007Z,16.80
2022-10-18T01:51:33.989Z,17.30
2022-10-18T01:52:34.221Z,16.30
2022-10-18T01:53:33.951Z,16.30
2022-10-18T01:54:33.929Z,17.20
2022-10-18T01:55:33.909Z,16.10
2022-10-18T01:56:33.888Z,16.60
2022-10-18T01:57:33.869Z,16.40
2022-10-18T01:58:33.849Z,17.90
2022-10-18T01:59:33.830Z,16.00
2022-10-18T02:00:33.810Z,15.70
2022-10-18T02:01:33.791Z,16.30
2022-10-18T02:02:34.014Z,17.40
2022-10-18T02:03:33.754Z,16.00
2022-10-18T02:04:33.734Z,16.70
2022-10-18T02:05:33.730Z,16.50
2022-10-18T02:06:33.695Z,16.80
2022-10-18T02:07:33.672Z,16.80
2022-10-18T02:08:33.653Z,17.10
2022-10-18T02:09:33.633Z,17.10
2022-10-18T02:10:33.613Z,17.80
2022-10-18T02:11:33.593Z,18.20
2022-10-18T02:12:33.755Z,16.90
2022-10-18T02:13:33.551Z,17.40
2022-10-18T02:14:33.533Z,17.70
2022-10-18T02:15:33.512Z,16.80
2022-10-18T02:16:33.494Z,17.20
2022-10-18T02:17:33.473Z,17.60
2022-10-18T02:18:33.457Z,17.50
2022-10-18T02:19:33.433Z,17.00
2022-10-18T02:20:33.413Z,17.30
2022-10-18T02:21:33.410Z,17.50
2022-10-18T02:22:33.626Z,16.30
2022-10-18T02:23:33.354Z,16.70
2022-10-18T02:24:33.334Z,17.00
2022-10-18T02:25:33.313Z,17.20
2022-10-18T02:26:33.297Z,16.30
2022-10-18T02:27:33.274Z,17.50
2022-10-18T02:28:33.256Z,17.20
2022-10-18T02:29:33.233Z,17.60
2022-10-18T02:30:33.219Z,16.40
2022-10-18T02:31:33.215Z,16.50
2022-10-18T02:32:33.508Z,17.00
2022-10-18T02:33:33.157Z,16.70
2022-10-18T02:34:33.136Z,15.90
2022-10-18T02:35:33.115Z,17.60
2022-10-18T02:36:33.096Z,17.80
2022-10-18T02:37:33.092Z,17.00
2022-10-18T02:38:33.056Z,16.80
2022-10-18T02:39:33.038Z,16.70
2022-10-18T02:40:33.018Z,16.30
2022-10-18T02:41:32.995Z,16.80
2022-10-18T02:42:33.199Z,17.20
2022-10-18T02:43:32.954Z,18.00
2022-10-18T02:44:32.935Z,16.50
2022-10-18T02:45:32.913Z,17.60
2022-10-18T02:46:32.907Z,16.70
2022-10-18T02:47:33.269Z,17.90
2022-10-18T02:48:32.857Z,17.50
2022-10-18T02:49:32.840Z,18.20
2022-10-18T02:50:32.817Z,17.20
2022-10-18T02:51:32.796Z,18.20
2022-10-18T02:52:32.777Z,17.80
2022-10-18T02:53:32.771Z,17.80
2022-10-18T02:54:32.747Z,18.20
2022-10-18T02:55:32.729Z,17.00
2022-10-18T02:56:32.696Z,16.70
2022-10-18T02:57:33.107Z,17.30
2022-10-18T02:58:32.661Z,18.00
2022-10-18T02:59:32.635Z,18.40
2022-10-18T03:00:32.615Z,18.10
2022-10-18T03:01:32.636Z,19.10
2022-10-18T03:02:32.577Z,18.70
2022-10-18T03:03:32.556Z,18.00
2022-10-18T03:04:32.546Z,17.90
2022-10-18T03:05:32.512Z,18.20
2022-10-18T03:06:32.495Z,17.90
2022-10-18T03:07:32.710Z,18.10
2022-10-18T03:08:32.460Z,19.00
2022-10-18T03:09:32.464Z,18.30
2022-10-18T03:10:32.413Z,18.40
2022-10-18T03:11:32.394Z,18.60
2022-10-18T03:12:32.375Z,18.80
2022-10-18T03:13:32.356Z,18.40
2022-10-18T03:14:32.334Z,18.20
2022-10-18T03:15:32.315Z,19.60
2022-10-18T03:16:32.294Z,18.40
2022-10-18T03:17:32.411Z,18.00
2022-10-18T03:18:32.253Z,18.70
2022-10-18T03:19:32.230Z,19.90
2022-10-18T03:20:32.215Z,19.00
2022-10-18T03:21:32.188Z,18.10
2022-10-18T03:22:32.174Z,18.90
2022-10-18T03:23:32.153Z,17.70
2022-10-18T03:24:32.132Z,19.30
2022-10-18T03:25:32.128Z,19.20
2022-10-18T03:26:32.092Z,19.20
2022-10-18T03:27:32.395Z,19.20
2022-10-18T03:28:32.094Z,20.40
2022-10-18T03:29:32.032Z,19.50
2022-10-18T03:30:32.013Z,19.40
2022-10-18T03:31:32.002Z,19.50
2022-10-18T03:32:32.237Z,19.90
2022-10-18T03:33:31.949Z,18.70
2022-10-18T03:34:31.931Z,19.30
2022-10-18T03:35:31.910Z,19.20
2022-10-18T03:36:31.894Z,19.10
2022-10-18T03:37:31.871Z,18.90
2022-10-18T03:38:31.852Z,18.10
2022-10-18T03:39:31.827Z,19.50
2022-10-18T03:41:31.812Z,18.20
2022-10-18T03:42:32.178Z,18.90
2022-10-18T03:43:31.748Z,17.40
2022-10-18T03:44:31.738Z,18.50
2022-10-18T03:45:31.813Z,18.60
2022-10-18T03:46:31.693Z,18.20
2022-10-18T03:47:31.668Z,19.30
2022-10-18T03:48:31.651Z,18.80
2022-10-18T03:50:31.609Z,17.80
2022-10-18T03:51:31.587Z,19.20
2022-10-18T03:52:31.964Z,19.40
2022-10-18T03:53:31.547Z,19.30
2022-10-18T03:54:31.531Z,19.80
2022-10-18T03:55:31.508Z,20.10
2022-10-18T03:56:31.488Z,19.10
2022-10-18T03:57:31.492Z,18.20
2022-10-18T03:58:31.489Z,19.90
2022-10-18T03:59:31.428Z,18.90
2022-10-18T04:00:31.408Z,19.80
2022-10-18T04:01:31.467Z,19.20
2022-10-18T04:02:31.760Z,19.70
2022-10-18T04:03:31.349Z,19.90
2022-10-18T04:04:31.330Z,18.10
2022-10-18T04:05:31.305Z,20.30
2022-10-18T04:06:31.287Z,19.20
2022-10-18T04:07:31.302Z,19.50
2022-10-18T04:08:31.248Z,18.00
2022-10-18T04:09:31.223Z,18.90
2022-10-18T04:10:31.207Z,18.30
2022-10-18T04:11:31.185Z,18.50
2022-10-18T04:12:31.502Z,18.40
2022-10-18T04:13:31.161Z,17.60
2022-10-18T04:14:31.126Z,18.30
2022-10-18T04:15:31.104Z,18.10
2022-10-18T04:16:31.154Z,17.30
2022-10-18T04:17:31.328Z,18.20
2022-10-18T04:18:31.045Z,18.10
2022-10-18T04:19:31.024Z,17.90
2022-10-18T04:20:31.007Z,17.00
2022-10-18T04:21:30.983Z,17.20
2022-10-18T04:22:30.966Z,17.30
2022-10-18T04:23:32.778Z,18.70
2022-10-18T04:24:30.926Z,18.70
2022-10-18T04:25:30.987Z,17.00
2022-10-18T04:26:30.885Z,18.10
2022-10-18T04:27:31.119Z,18.30
2022-10-18T04:28:30.953Z,17.90
2022-10-18T04:29:30.823Z,17.40
2022-10-18T04:30:30.819Z,17.60
2022-10-18T04:31:30.782Z,18.30
2022-10-18T04:32:30.765Z,17.30
2022-10-18T04:33:30.747Z,17.40
2022-10-18T04:34:30.766Z,17.60
2022-10-18T04:35:30.700Z,17.40
2022-10-18T04:36:30.683Z,18.70
2022-10-18T04:37:31.012Z,18.20
2022-10-18T04:38:30.643Z,17.50
2022-10-18T04:39:30.617Z,17.30
2022-10-18T04:40:30.601Z,20.20
2022-10-18T04:41:30.579Z,20.10
2022-10-18T04:42:30.560Z,21.90
2022-10-18T04:43:30.539Z,22.50
2022-10-18T04:44:30.520Z,21.40
2022-10-18T04:45:30.496Z,20.20
2022-10-18T04:46:30.499Z,21.30
2022-10-18T04:47:30.861Z,21.70
2022-10-18T04:48:30.442Z,22.30
2022-10-18T04:49:30.414Z,23.60
2022-10-18T04:50:30.397Z,23.70
2022-10-18T04:51:30.374Z,22.50
2022-10-18T04:52:30.359Z,24.20
2022-10-18T04:53:30.334Z,23.50
2022-10-18T04:54:30.316Z,23.30
2022-10-18T04:55:30.295Z,23.40
2022-10-18T04:56:30.275Z,23.90
2022-10-18T04:57:30.684Z,22.60
2022-10-18T04:58:30.235Z,23.60
2022-10-18T04:59:30.213Z,24.50
2022-10-18T05:00:30.193Z,23.60
2022-10-18T05:01:30.220Z,25.30
2022-10-18T05:02:30.532Z,25.20
2022-10-18T05:03:30.134Z,24.20
2022-10-18T05:04:30.112Z,24.10
2022-10-18T05:05:49.710Z,22.60
2022-10-18T05:06:30.070Z,23.00
2022-10-18T05:07:30.047Z,22.80
2022-10-18T05:08:30.034Z,23.20
2022-10-18T05:09:30.008Z,23.30
2022-10-18T05:10:29.988Z,23.50
2022-10-18T05:11:29.967Z,22.90
2022-10-18T05:12:30.229Z,23.70
2022-10-18T05:13:29.924Z,23.30
2022-10-18T05:14:29.908Z,23.50
2022-10-18T05:15:29.884Z,23.80
2022-10-18T05:16:29.865Z,23.40
2022-10-18T05:17:29.845Z,22.90
2022-10-18T05:18:29.843Z,24.40
2022-10-18T05:19:29.800Z,24.00
2022-10-18T05:20:29.782Z,23.50
2022-10-18T05:21:29.763Z,23.80
2022-10-18T05:22:30.003Z,24.40
2022-10-18T05:23:29.722Z,23.90
2022-10-18T05:24:29.701Z,23.50
2022-10-18T05:25:29.679Z,23.40
2022-10-18T05:26:29.659Z,24.80
2022-10-18T05:27:29.637Z,22.40
2022-10-18T05:28:45.146Z,23.60
2022-10-18T05:29:29.599Z,25.10
2022-10-18T05:30:29.580Z,24.60
2022-10-18T05:31:29.555Z,25.00
2022-10-18T05:32:29.854Z,24.20
2022-10-18T05:33:29.512Z,24.70
2022-10-18T05:34:29.568Z,24.60
2022-10-18T05:35:29.475Z,24.00
2022-10-18T05:36:29.454Z,25.40
2022-10-18T05:37:29.432Z,24.10
2022-10-18T05:38:29.487Z,25.80
2022-10-18T05:39:29.391Z,25.30
2022-10-18T05:40:29.371Z,23.90
2022-10-18T05:41:29.347Z,23.60
2022-10-18T05:42:29.620Z,25.00
2022-10-18T05:43:29.307Z,24.70
2022-10-18T05:44:29.290Z,24.60
2022-10-18T05:45:29.267Z,24.30
2022-10-18T05:46:29.247Z,25.20
2022-10-18T05:47:29.295Z,25.00
2022-10-18T05:48:29.205Z,25.00
2022-10-18T05:49:29.184Z,25.00
2022-10-18T05:50:29.184Z,23.60
2022-10-18T05:51:29.140Z,24.60
2022-10-18T05:52:29.252Z,23.90
2022-10-18T05:53:36.588Z,25.50
2022-10-18T05:54:29.084Z,25.80
2022-10-18T05:55:29.059Z,24.10
2022-10-18T05:56:29.170Z,24.20
2022-10-18T05:57:29.281Z,24.80
2022-10-18T05:58:28.998Z,23.40
2022-10-18T05:59:28.979Z,24.80
2022-10-18T06:00:28.964Z,23.60
2022-10-18T06:01:28.935Z,24.10
2022-10-18T06:02:28.998Z,23.50
2022-10-18T06:03:28.893Z,24.00
2022-10-18T06:04:28.877Z,23.00
2022-10-18T06:05:28.938Z,22.40
2022-10-18T06:06:28.854Z,23.60
2022-10-18T06:07:28.943Z,22.50
2022-10-18T06:08:28.794Z,23.10
2022-10-18T06:09:28.771Z,21.90
2022-10-18T06:10:28.748Z,23.00
2022-10-18T06:11:28.730Z,22.70
2022-10-18T06:12:28.708Z,23.40
2022-10-18T06:13:31.148Z,23.30
2022-10-18T06:14:28.667Z,23.40
2022-10-18T06:15:28.645Z,23.30
2022-10-18T06:16:32.470Z,23.60
2022-10-18T06:18:26.067Z,23.50
2022-10-18T06:19:26.048Z,25.20
2022-10-18T06:20:26.092Z,22.80
2022-10-18T06:21:26.005Z,21.60
2022-10-18T06:22:26.000Z,22.50
2022-10-18T06:26:26.710Z,22.30
2022-10-18T06:27:26.689Z,19.70
2022-10-18T06:30:52.371Z,22.10
2022-10-18T06:31:52.338Z,22.20
2022-10-18T06:32:52.317Z,23.80
2022-10-18T06:33:52.299Z,23.00
2022-10-18T06:34:52.280Z,21.90
2022-10-18T06:35:52.257Z,21.80
2022-10-18T06:36:56.413Z,22.20
2022-10-18T06:37:52.237Z,22.00
2022-10-18T06:38:52.192Z,21.60
2022-10-18T06:39:52.172Z,22.80
2022-10-18T06:40:52.150Z,22.30
2022-10-18T06:41:52.131Z,22.00
2022-10-18T06:43:00.526Z,22.40
2022-10-18T06:43:52.090Z,22.40
2022-10-18T06:44:52.068Z,22.20
2022-10-18T06:45:52.047Z,20.50
2022-10-18T06:46:52.024Z,21.90
2022-10-18T06:47:52.005Z,22.60
2022-10-18T06:53:00.944Z,22.10
2022-10-18T06:54:48.351Z,23.60
2022-10-18T06:55:48.333Z,22.70
2022-10-18T06:56:48.309Z,23.00
2022-10-18T06:57:48.291Z,22.30
2022-10-18T06:58:48.313Z,22.80
2022-10-18T06:59:48.246Z,22.70
2022-10-18T07:00:48.222Z,22.20
2022-10-18T07:01:48.326Z,22.60
2022-10-18T07:02:48.182Z,22.90
2022-10-18T07:03:48.168Z,23.40
2022-10-18T07:04:48.143Z,23.40
2022-10-18T07:05:48.119Z,21.90
2022-10-18T07:06:48.098Z,23.20
2022-10-18T07:07:49.832Z,23.70
2022-10-18T07:08:48.072Z,21.80
2022-10-18T07:09:48.038Z,22.60
2022-10-18T07:10:48.012Z,22.80
2022-10-18T07:11:47.991Z,22.20
2022-10-18T07:12:47.970Z,23.60
2022-10-18T07:13:47.951Z,23.40
2022-10-18T07:14:47.929Z,22.70
2022-10-18T07:15:47.908Z,22.60
2022-10-18T07:16:47.884Z,23.70
2022-10-18T07:17:47.865Z,21.90
2022-10-18T07:18:47.841Z,22.40
2022-10-18T07:19:47.821Z,23.00
2022-10-18T07:20:47.799Z,23.80
2022-10-18T07:21:47.779Z,23.70
2022-10-18T07:22:47.757Z,24.20
2022-10-18T07:23:47.736Z,22.90
2022-10-18T07:24:47.732Z,23.50
2022-10-18T07:25:47.694Z,23.10
2022-10-18T07:26:47.670Z,22.50
2022-10-18T07:27:47.651Z,22.90
2022-10-18T07:28:47.691Z,23.10
2022-10-18T07:29:47.610Z,23.50
2022-10-18T07:30:47.585Z,22.30
2022-10-18T07:31:47.566Z,22.30
2022-10-18T07:32:47.541Z,22.80
2022-10-18T07:33:47.523Z,23.00
2022-10-18T07:34:47.503Z,23.00
2022-10-18T07:35:47.477Z,23.40
2022-10-18T07:36:47.460Z,23.00
2022-10-18T07:37:47.437Z,22.90
2022-10-18T07:38:47.414Z,21.80
2022-10-18T07:39:47.394Z,22.00
2022-10-18T07:40:47.467Z,23.10
2022-10-18T07:41:47.351Z,21.30
2022-10-18T07:42:47.327Z,23.70
2022-10-18T07:43:47.309Z,21.60
2022-10-18T07:44:47.289Z,22.20
2022-10-18T07:45:47.265Z,21.50
2022-10-18T07:46:47.242Z,21.30
2022-10-18T07:47:47.221Z,21.10
2022-10-18T07:48:47.198Z,23.10
2022-10-18T07:49:47.180Z,22.30
2022-10-18T07:50:47.156Z,22.00
2022-10-18T07:51:47.138Z,21.80
2022-10-18T07:52:47.117Z,21.40
2022-10-18T07:53:47.095Z,22.80
2022-10-18T07:54:47.213Z,23.20
2022-10-18T07:55:47.051Z,22.20
2022-10-18T07:56:47.046Z,21.60
2022-10-18T07:57:47.008Z,22.60
2022-10-18T07:58:46.989Z,22.20
2022-10-18T07:59:46.966Z,22.10
2022-10-18T08:00:46.955Z,22.20
2022-10-18T08:01:46.980Z,21.30
2022-10-18T08:02:46.899Z,22.30
2022-10-18T08:03:46.878Z,20.60
2022-10-18T08:04:46.857Z,22.10
2022-10-18T08:05:46.839Z,20.60
2022-10-18T08:06:46.818Z,21.00
2022-10-18T08:07:46.796Z,21.20
2022-10-18T08:08:46.770Z,20.80
2022-10-18T08:09:46.752Z,19.80
2022-10-18T08:10:46.729Z,20.50
2022-10-18T08:11:46.709Z,20.50
2022-10-18T08:12:46.776Z,19.50
2022-10-18T08:13:46.694Z,19.20
2022-10-18T08:14:46.643Z,18.40
2022-10-18T08:15:46.622Z,18.90
2022-10-18T08:16:46.599Z,18.60
2022-10-18T08:17:46.579Z,18.10
2022-10-18T08:18:46.557Z,18.70
2022-10-18T08:19:58.341Z,18.30
2022-10-18T08:20:46.514Z,18.30
2022-10-18T08:21:46.494Z,19.50
2022-10-18T08:22:46.470Z,17.80
2022-10-18T08:23:46.451Z,17.10
2022-10-18T08:24:46.429Z,17.80
2022-10-18T08:25:46.409Z,18.20
2022-10-18T08:26:46.385Z,17.80
2022-10-18T08:27:46.364Z,18.30
2022-10-18T08:28:54.014Z,17.70
2022-10-18T08:29:46.379Z,18.70
2022-10-18T08:30:46.300Z,17.80
2022-10-18T08:31:46.279Z,18.40
2022-10-18T08:32:46.256Z,18.10
2022-10-18T08:33:46.236Z,16.40
2022-10-18T08:34:46.215Z,18.00
2022-10-18T08:35:46.198Z,17.20
2022-10-18T08:36:46.172Z,16.90
2022-10-18T08:37:46.151Z,16.10
2022-10-18T08:38:46.126Z,15.90
2022-10-18T08:39:46.109Z,16.50
2022-10-18T08:40:46.084Z,18.00
2022-10-18T08:41:46.065Z,16.30
2022-10-18T08:42:46.042Z,16.70
2022-10-18T08:43:46.022Z,15.90
2022-10-18T08:44:46.019Z,16.50
2022-10-18T08:45:45.979Z,16.90
2022-10-18T08:46:45.967Z,16.30
2022-10-18T08:47:45.936Z,16.80
2022-10-18T08:48:45.913Z,17.30
2022-10-18T08:49:47.300Z,16.80
2022-10-18T08:50:45.872Z,16.80
2022-10-18T08:51:45.852Z,16.90
2022-10-18T08:52:45.829Z,16.80
2022-10-18T08:53:45.809Z,16.40
2022-10-18T08:54:45.787Z,15.50
2022-10-18T08:55:45.763Z,15.60
2022-10-18T08:56:45.745Z,15.90
2022-10-18T09:00:11.429Z,15.80
2022-10-18T09:01:11.394Z,15.30
2022-10-18T09:02:11.367Z,16.10
2022-10-18T09:03:11.402Z,15.90
2022-10-18T09:04:11.323Z,15.50
2022-10-18T09:05:11.303Z,16.40
2022-10-18T09:06:11.286Z,16.20
2022-10-18T09:07:11.261Z,15.60
2022-10-18T09:08:11.264Z,15.70
2022-10-18T09:09:11.221Z,15.70
2022-10-18T09:10:11.228Z,16.40
2022-10-18T09:11:11.177Z,15.80
2022-10-18T09:12:11.155Z,15.40
2022-10-18T09:13:11.135Z,16.40
2022-10-18T09:14:11.112Z,16.00
2022-10-18T09:15:11.091Z,16.40
2022-10-18T09:16:11.093Z,15.40
2022-10-18T09:17:15.778Z,16.10
2022-10-18T09:18:11.026Z,16.00
2022-10-18T09:19:11.008Z,16.50
2022-10-18T09:20:10.982Z,15.90
2022-10-18T09:21:10.966Z,15.60
2022-10-18T09:22:10.941Z,16.10
2022-10-18T09:23:10.923Z,15.60
2022-10-18T09:24:10.897Z,15.50
2022-10-18T09:25:10.884Z,16.00
2022-10-18T09:26:10.855Z,15.80
2022-10-18T09:27:10.836Z,16.60
2022-10-18T09:28:10.816Z,15.60
2022-10-18T09:29:10.987Z,14.90
2022-10-18T09:30:10.775Z,14.90
2022-10-18T09:31:10.749Z,14.30
2022-10-18T09:32:10.754Z,14.70
2022-10-18T09:33:10.709Z,13.80
2022-10-18T09:34:10.685Z,14.90
2022-10-18T09:35:10.665Z,13.80
2022-10-18T09:36:10.641Z,14.70
2022-10-18T09:37:10.637Z,15.00
2022-10-18T09:38:10.611Z,14.90
2022-10-18T09:39:10.580Z,15.40
2022-10-18T09:40:12.153Z,14.40
2022-10-18T09:41:10.541Z,13.20
2022-10-18T09:42:10.522Z,13.30
2022-10-18T09:43:10.497Z,12.40
2022-10-18T09:44:10.475Z,11.80
2022-10-18T09:45:10.458Z,11.90
2022-10-18T09:46:10.434Z,13.00
2022-10-18T09:47:13.398Z,11.90
2022-10-18T09:48:10.426Z,12.90
2022-10-18T09:49:12.979Z,14.10
2022-10-18T09:50:10.351Z,12.80
2022-10-18T09:51:10.328Z,13.10
2022-10-18T09:52:10.309Z,13.20
2022-10-18T09:53:10.288Z,12.90
2022-10-18T09:54:10.266Z,13.00
2022-10-18T09:55:10.248Z,12.00
2022-10-18T09:56:10.224Z,12.00
2022-10-18T09:57:10.206Z,10.10
2022-10-18T09:58:10.184Z,11.60
2022-10-18T09:59:10.166Z,10.80
2022-10-18T10:00:10.142Z,11.00
2022-10-18T10:01:10.124Z,10.60
2022-10-18T10:02:10.118Z,11.20
2022-10-18T10:03:10.080Z,10.60
2022-10-18T10:04:10.076Z,11.50
2022-10-18T10:06:10.021Z,9.60
2022-10-18T10:07:10.002Z,10.70
2022-10-18T10:08:09.974Z,9.70
2022-10-18T10:09:09.955Z,10.30
2022-10-18T10:10:09.932Z,10.30
2022-10-18T10:11:09.915Z,10.10
2022-10-18T10:12:09.890Z,10.40
2022-10-18T10:13:09.871Z,11.00
2022-10-18T10:14:09.904Z,9.90
2022-10-18T10:15:09.832Z,10.10
2022-10-18T10:16:09.817Z,9.80
2022-10-18T10:17:09.788Z,9.50
2022-10-18T10:18:09.772Z,9.30
2022-10-18T10:19:09.749Z,10.00
2022-10-18T10:20:09.745Z,9.10
2022-10-18T10:21:09.708Z,8.60
2022-10-18T10:22:09.686Z,8.70
2022-10-18T10:23:09.711Z,8.00
2022-10-18T10:24:09.646Z,8.10
2022-10-18T10:25:09.629Z,8.60
2022-10-18T10:26:09.609Z,8.90
2022-10-18T10:27:09.585Z,9.00
2022-10-18T10:28:09.571Z,8.70
2022-10-18T10:29:17.427Z,8.80
2022-10-18T10:30:09.527Z,9.20
2022-10-18T10:31:09.510Z,9.10
2022-10-18T10:32:09.488Z,8.40
2022-10-18T10:33:09.470Z,9.50
2022-10-18T10:34:09.448Z,9.00
2022-10-18T10:35:13.606Z,8.80
2022-10-18T10:36:09.432Z,9.20
2022-10-18T10:37:09.393Z,8.10
2022-10-18T10:38:09.371Z,8.50
2022-10-18T10:39:09.352Z,7.80
2022-10-18T10:40:27.806Z,8.60
2022-10-18T10:41:09.315Z,8.80
2022-10-18T10:42:11.438Z,7.90
2022-10-18T10:43:19.659Z,7.70
2022-10-18T10:44:09.256Z,7.50
2022-10-18T10:45:09.238Z,7.50
2022-10-18T10:46:09.217Z,5.80
2022-10-18T10:47:09.203Z,4.40
2022-10-18T10:48:09.183Z,4.10
2022-10-18T10:49:38.705Z,4.00
2022-10-18T10:50:09.143Z,3.60
2022-10-18T10:51:09.125Z,3.40
2022-10-18T10:52:25.855Z,3.80
2022-10-18T10:53:09.087Z,3.80
2022-10-18T10:54:09.071Z,4.00
2022-10-18T10:55:30.761Z,3.60
2022-10-18T10:56:10.000Z,3.20
2022-10-18T10:57:09.011Z,4.20
2022-10-18T10:58:08.991Z,3.60
2022-10-18T10:59:09.045Z,3.70
2022-10-18T11:00:08.954Z,3.70
2022-10-18T11:01:11.193Z,3.60
2022-10-18T11:02:08.914Z,3.80
2022-10-18T11:03:27.348Z,3.50
2022-10-18T11:04:08.932Z,3.60
2022-10-18T11:05:08.862Z,4.10
2022-10-18T11:06:08.838Z,4.30
2022-10-18T11:07:08.818Z,4.60
2022-10-18T11:08:08.819Z,3.90
2022-10-18T11:09:08.782Z,4.40
2022-10-18T11:10:08.760Z,4.50
2022-10-18T11:11:08.741Z,4.30
2022-10-18T11:12:08.720Z,4.20
2022-10-18T11:13:08.703Z,3.90
2022-10-18T11:15:08.666Z,3.00
2022-10-18T11:16:08.643Z,3.20
2022-10-18T11:17:08.639Z,3.40
2022-10-18T11:18:08.614Z,4.10
2022-10-18T11:19:08.586Z,3.50
2022-10-18T11:20:08.562Z,4.20
2022-10-18T11:21:08.547Z,4.00
2022-10-18T11:22:08.524Z,4.20
2022-10-18T11:23:08.505Z,3.80
2022-10-18T11:24:08.503Z,4.20
2022-10-18T11:25:08.465Z,4.00
2022-10-18T11:26:08.447Z,4.10
2022-10-18T11:27:08.428Z,3.60
2022-10-18T11:28:08.405Z,3.40
2022-10-18T11:29:08.385Z,3.30
2022-10-18T11:30:08.364Z,3.30
2022-10-18T11:31:08.347Z,3.50
2022-10-18T11:32:08.327Z,4.10
2022-10-18T11:33:08.307Z,3.70
2022-10-18T11:34:09.935Z,3.70
2022-10-18T11:35:08.267Z,2.90
2022-10-18T11:36:08.247Z,3.10
2022-10-18T11:37:39.388Z,3.00
2022-10-18T11:38:08.209Z,3.50
2022-10-18T11:39:08.185Z,3.20
2022-10-18T11:40:08.183Z,3.10
2022-10-18T11:41:08.147Z,2.70
2022-10-18T11:42:08.131Z,2.80
2022-10-18T11:43:08.107Z,3.50
2022-10-18T11:44:08.085Z,2.60
2022-10-18T11:45:08.066Z,3.10
2022-10-18T11:46:08.046Z,3.00
2022-10-18T11:47:08.024Z,3.00
2022-10-18T11:48:08.014Z,3.90
2022-10-18T11:49:07.986Z,3.50
2022-10-18T11:50:07.965Z,3.50
2022-10-18T11:51:07.949Z,2.70
2022-10-18T11:52:08.944Z,2.80
2022-10-18T11:53:07.906Z,2.80
2022-10-18T11:54:07.906Z,3.40
2022-10-18T11:55:07.868Z,3.10
2022-10-18T11:56:07.862Z,3.10
2022-10-18T11:57:07.827Z,3.00
2022-10-18T11:58:07.802Z,3.40
2022-10-18T11:59:07.793Z,3.40
2022-10-18T12:00:07.763Z,3.00
2022-10-18T12:01:07.745Z,3.10
2022-10-18T12:02:07.722Z,3.10
2022-10-18T12:03:07.764Z,3.70
2022-10-18T12:04:07.679Z,3.10
2022-10-18T12:05:24.322Z,3.20
2022-10-18T12:06:07.641Z,2.80
2022-10-18T12:07:07.620Z,2.60
2022-10-18T12:08:07.600Z,3.00
2022-10-18T12:09:07.583Z,2.50
2022-10-18T12:10:07.558Z,2.80
2022-10-18T12:11:07.541Z,2.60
2022-10-18T12:12:07.538Z,2.40
2022-10-18T12:13:07.497Z,2.40
2022-10-18T12:14:07.481Z,2.00
2022-10-18T12:15:07.457Z,2.50
2022-10-18T12:16:07.434Z,3.00
2022-10-18T12:17:39.778Z,2.20
2022-10-18T12:18:07.395Z,2.30
2022-10-18T12:19:07.377Z,2.50
2022-10-18T12:20:07.367Z,2.10
2022-10-18T12:21:07.353Z,2.70
2022-10-18T12:22:07.315Z,2.40
2022-10-18T12:23:07.297Z,2.30
2022-10-18T12:24:07.285Z,3.00
2022-10-18T12:25:07.255Z,2.70
2022-10-18T12:26:07.233Z,2.40
2022-10-18T12:27:07.213Z,2.50
2022-10-18T12:28:07.215Z,2.10
2022-10-18T12:29:07.233Z,2.20
2022-10-18T12:30:07.151Z,2.10
2022-10-18T12:31:07.133Z,2.00
2022-10-18T12:32:07.110Z,1.90
2022-10-18T12:33:26.712Z,2.00
2022-10-18T12:34:07.070Z,1.90
2022-10-18T12:35:07.053Z,2.00
2022-10-18T12:36:07.229Z,1.80
2022-10-18T12:37:07.013Z,1.90
2022-10-18T12:39:10.204Z,2.20
2022-10-18T12:40:12.395Z,2.00
2022-10-18T12:41:06.929Z,1.90
2022-10-18T12:42:06.910Z,1.70
2022-10-18T12:43:06.890Z,1.80
2022-10-18T12:44:06.890Z,1.90
2022-10-18T12:45:06.848Z,1.90
2022-10-18T12:46:12.242Z,2.00
2022-10-18T12:47:06.810Z,1.80
2022-10-18T12:48:06.810Z,1.80
2022-10-18T12:49:06.768Z,2.00
2022-10-18T12:50:06.802Z,1.60
2022-10-18T12:51:06.730Z,1.70
2022-10-18T12:52:06.708Z,2.00
2022-10-18T12:53:06.685Z,1.70
2022-10-18T12:54:06.665Z,1.70
2022-10-18T12:55:06.646Z,1.60
2022-10-18T12:56:06.629Z,2.00
2022-10-18T12:57:06.614Z,1.60
2022-10-18T12:58:06.589Z,2.00
2022-10-18T12:59:06.563Z,1.60
2022-10-18T13:00:06.625Z,2.00
2022-10-18T13:01:06.581Z,1.90
2022-10-18T13:02:06.512Z,1.60
2022-10-18T13:03:06.483Z,1.60
2022-10-18T13:04:06.464Z,1.70
2022-10-18T13:05:16.305Z,1.80
2022-10-18T13:06:06.936Z,1.60
2022-10-18T13:07:06.402Z,1.90
2022-10-18T13:08:06.387Z,1.80
2022-10-18T13:09:06.362Z,1.60
2022-10-18T13:10:06.376Z,1.70
2022-10-18T13:11:06.325Z,1.50
2022-10-18T13:12:06.302Z,1.80
2022-10-18T13:13:24.488Z,1.90
2022-10-18T13:14:06.269Z,1.60
2022-10-18T13:15:24.054Z,1.90
2022-10-18T13:16:06.241Z,1.80
2022-10-18T13:17:06.204Z,1.60